N912CF KABE-KMLB
Flight info
| Callsign | N912CF |
|---|---|
| Flight time | N/A |
| Altitude | 40000 |
| Route | DCT ETX DCT LRP DCT GVE Q75 GSO Q83 ROYCO Q85 LPERD DCT OMN BITHO7 |
| Aircraft | C700/L-SDE2E3FGHIRWXY/LB1 |
Departure
| Time | N/A |
|---|---|
| Airport | Lehigh Valley International Airport (KABE) |
Arrival
| Time | 2026-04-27 03:12 |
|---|---|
| Airport | Melbourne Orlando International Airport (KMLB) |
| Time | Latitude | Longitude | Altitude | Speed | Heading |
|---|---|---|---|---|---|
| 2026-04-27 02:54 | 29.03709 | -81.09149 | 33567 ft | 383 kts | 181° |
| 2026-04-27 02:54 | 29.01074 | -81.08939 | 32775 ft | 377 kts | 181° |
| 2026-04-27 02:55 | 28.98466 | -81.08734 | 32009 ft | 373 kts | 180° |
| 2026-04-27 02:55 | 28.95923 | -81.08534 | 31268 ft | 369 kts | 180° |
| 2026-04-27 02:55 | 28.93366 | -81.08331 | 30541 ft | 367 kts | 180° |
| 2026-04-27 02:55 | 28.90820 | -81.08130 | 29799 ft | 366 kts | 180° |
| 2026-04-27 02:56 | 28.88281 | -81.07929 | 28990 ft | 365 kts | 180° |
| 2026-04-27 02:56 | 28.85752 | -81.07729 | 28203 ft | 363 kts | 180° |
| 2026-04-27 02:56 | 28.83240 | -81.07530 | 27441 ft | 361 kts | 180° |
| 2026-04-27 02:56 | 28.80743 | -81.07332 | 26701 ft | 358 kts | 180° |
| 2026-04-27 02:57 | 28.78261 | -81.07136 | 25928 ft | 357 kts | 180° |
| 2026-04-27 02:57 | 28.75767 | -81.06941 | 24991 ft | 361 kts | 180° |
| 2026-04-27 02:57 | 28.73264 | -81.06743 | 24090 ft | 358 kts | 179° |
| 2026-04-27 02:57 | 28.70790 | -81.06546 | 23145 ft | 353 kts | 179° |
| 2026-04-27 02:58 | 28.68362 | -81.06354 | 22118 ft | 347 kts | 179° |
| 2026-04-27 02:58 | 28.65971 | -81.06165 | 21119 ft | 342 kts | 178° |
| 2026-04-27 02:58 | 28.63672 | -81.05679 | 20155 ft | 341 kts | 165° |
| 2026-04-27 02:58 | 28.61488 | -81.04653 | 19215 ft | 338 kts | 153° |
| 2026-04-27 02:59 | 28.59525 | -81.03212 | 18302 ft | 334 kts | 147° |
| 2026-04-27 02:59 | 28.57611 | -81.01741 | 17277 ft | 329 kts | 148° |
| 2026-04-27 02:59 | 28.55579 | -81.00621 | 16261 ft | 322 kts | 166° |
| 2026-04-27 02:59 | 28.53385 | -81.00502 | 15285 ft | 313 kts | 192° |
| 2026-04-27 03:00 | 28.51408 | -81.01390 | 14357 ft | 302 kts | 210° |
| 2026-04-27 03:00 | 28.49388 | -81.02032 | 13390 ft | 307 kts | 185° |
| 2026-04-27 03:00 | 28.47262 | -81.01915 | 12393 ft | 303 kts | 175° |
| 2026-04-27 03:00 | 28.45184 | -81.01650 | 11413 ft | 297 kts | 174° |
| 2026-04-27 03:01 | 28.43178 | -81.01375 | 11013 ft | 282 kts | 174° |
| 2026-04-27 03:01 | 28.41254 | -81.01110 | 11005 ft | 277 kts | 174° |
| 2026-04-27 03:01 | 28.39350 | -81.00846 | 11004 ft | 273 kts | 174° |
| 2026-04-27 03:01 | 28.37491 | -81.00590 | 11000 ft | 271 kts | 174° |
| 2026-04-27 03:02 | 28.35622 | -81.00329 | 10996 ft | 270 kts | 174° |
| 2026-04-27 03:02 | 28.33759 | -81.00071 | 10999 ft | 269 kts | 174° |
| 2026-04-27 03:02 | 28.31897 | -80.99811 | 10929 ft | 271 kts | 174° |
| 2026-04-27 03:02 | 28.29961 | -80.99546 | 10236 ft | 285 kts | 174° |
| 2026-04-27 03:03 | 28.27996 | -80.99285 | 9523 ft | 284 kts | 174° |
| 2026-04-27 03:03 | 28.24073 | -80.98781 | 8024 ft | 281 kts | 174° |
| 2026-04-27 03:03 | 28.22143 | -80.98534 | 7310 ft | 278 kts | 174° |
| 2026-04-27 03:04 | 28.20226 | -80.98289 | 6608 ft | 276 kts | 174° |
| 2026-04-27 03:04 | 28.18326 | -80.98045 | 5882 ft | 273 kts | 174° |
| 2026-04-27 03:04 | 28.16473 | -80.97799 | 5161 ft | 270 kts | 174° |
| 2026-04-27 03:04 | 28.14668 | -80.97549 | 4438 ft | 251 kts | 174° |
| 2026-04-27 03:05 | 28.13097 | -80.96908 | 3675 ft | 235 kts | 143° |
| 2026-04-27 03:05 | 28.12121 | -80.95512 | 2926 ft | 223 kts | 116° |
| 2026-04-27 03:05 | 28.11468 | -80.93957 | 2187 ft | 215 kts | 114° |
| 2026-04-27 03:05 | 28.10874 | -80.92499 | 1996 ft | 189 kts | 113° |
| 2026-04-27 03:06 | 28.10346 | -80.91168 | 1995 ft | 187 kts | 110° |
| 2026-04-27 03:06 | 28.09968 | -80.89741 | 1996 ft | 187 kts | 102° |
| 2026-04-27 03:06 | 28.09812 | -80.88367 | 1996 ft | 167 kts | 84° |
| 2026-04-27 03:06 | 28.09925 | -80.87066 | 2005 ft | 168 kts | 83° |
| 2026-04-27 03:07 | 28.10021 | -80.85758 | 2005 ft | 164 kts | 83° |
| 2026-04-27 03:07 | 28.10120 | -80.84490 | 2007 ft | 159 kts | 83° |
| 2026-04-27 03:07 | 28.10154 | -80.83250 | 1958 ft | 157 kts | 90° |
| 2026-04-27 03:07 | 28.10079 | -80.82021 | 1984 ft | 159 kts | 92° |
| 2026-04-27 03:08 | 28.09984 | -80.80772 | 2006 ft | 159 kts | 93° |
| 2026-04-27 03:08 | 28.09891 | -80.79602 | 2011 ft | 143 kts | 91° |
| 2026-04-27 03:08 | 28.09842 | -80.78506 | 1962 ft | 129 kts | 87° |
| 2026-04-27 03:08 | 28.09849 | -80.77544 | 1893 ft | 127 kts | 86° |
| 2026-04-27 03:09 | 28.09895 | -80.76531 | 1956 ft | 128 kts | 84° |
| 2026-04-27 03:09 | 28.09938 | -80.75520 | 2053 ft | 130 kts | 84° |
| 2026-04-27 03:09 | 28.10006 | -80.74479 | 2048 ft | 134 kts | 82° |
| 2026-04-27 03:09 | 28.10091 | -80.73449 | 1945 ft | 129 kts | 81° |
| 2026-04-27 03:10 | 28.10189 | -80.72433 | 1737 ft | 131 kts | 81° |
| 2026-04-27 03:10 | 28.10279 | -80.71393 | 1430 ft | 134 kts | 84° |
| 2026-04-27 03:10 | 28.10315 | -80.70352 | 1212 ft | 131 kts | 88° |
| 2026-04-27 03:10 | 28.10379 | -80.69321 | 920 ft | 132 kts | 85° |
| 2026-04-27 03:11 | 28.10428 | -80.68303 | 692 ft | 129 kts | 90° |
| 2026-04-27 03:11 | 28.10478 | -80.67299 | 417 ft | 126 kts | 87° |
| 2026-04-27 03:11 | 28.10527 | -80.66316 | 171 ft | 121 kts | 87° |
| 2026-04-27 03:11 | 28.10569 | -80.65403 | 34 ft | 103 kts | 86° |
| 2026-04-27 03:12 | 28.10603 | -80.64757 | 33 ft | 23 kts | 86° |
| 2026-04-27 03:12 | 28.10607 | -80.64686 | 32 ft | 16 kts | 86° |
| 2026-04-27 03:12 | 28.10615 | -80.64505 | 27 ft | 26 kts | 86° |
| 2026-04-27 03:12 | 28.10627 | -80.64291 | 28 ft | 27 kts | 86° |
| 2026-04-27 03:13 | 28.10649 | -80.64152 | 26 ft | 14 kts | 34° |
| 2026-04-27 03:13 | 28.10721 | -80.64101 | 26 ft | 13 kts | 81° |
| 2026-04-27 03:13 | 28.10726 | -80.63988 | 28 ft | 15 kts | 87° |
| 2026-04-27 03:13 | 28.10733 | -80.63857 | 29 ft | 18 kts | 88° |
| 2026-04-27 03:14 | 28.10737 | -80.63701 | 29 ft | 21 kts | 101° |
| 2026-04-27 03:14 | 28.10651 | -80.63560 | 30 ft | 23 kts | 130° |
| 2026-04-27 03:14 | 28.10542 | -80.63413 | 29 ft | 25 kts | 130° |
| 2026-04-27 03:14 | 28.10427 | -80.63258 | 29 ft | 24 kts | 130° |
| 2026-04-27 03:15 | 28.10379 | -80.63169 | 28 ft | 10 kts | 64° |
| 2026-04-27 03:15 | 28.10440 | -80.63099 | 28 ft | 14 kts | 45° |
| 2026-04-27 03:15 | 28.10504 | -80.63031 | 27 ft | 9 kts | 47° |
| 2026-04-27 03:15 | 28.10526 | -80.62958 | 25 ft | 10 kts | 125° |
| 2026-04-27 03:16 | 28.10523 | -80.62925 | 25 ft | 0 kts | 50° |